Time;durP1;ratioP1;P1;durP2;ratioP2;P2;SDS_P1;SDS_P2;PMS_P1;PMS_P2;Temp;Humidity;BMP_temperature;BMP_pressure;BME280_temperature;BME280_humidity;BME280_pressure;Samples;Min_cycle;Max_cycle;Signal;HPM_P1;HPM_P2
2021/10/23 00:01:38;;;;;;;4.00;1.53;;;7.80;99.90;;;;;;5066848;28;20271;-68
2021/10/23 00:04:05;;;;;;;1.50;1.40;;;7.80;99.90;;;;;;5059775;28;20301;-70
2021/10/23 00:06:32;;;;;;;1.67;1.43;;;7.80;99.90;;;;;;5073341;28;20316;-68
2021/10/23 00:08:59;;;;;;;4.03;1.57;;;7.80;99.90;;;;;;5058354;28;20206;-68
2021/10/23 00:11:26;;;;;;;3.07;1.77;;;7.80;99.90;;;;;;5057780;28;20636;-69
2021/10/23 00:13:54;;;;;;;2.80;1.70;;;7.70;99.90;;;;;;5053073;28;20228;-69
2021/10/23 00:16:21;;;;;;;2.60;1.83;;;7.70;99.90;;;;;;5054230;28;20203;-69
2021/10/23 00:18:48;;;;;;;2.43;2.00;;;7.70;99.90;;;;;;5060305;28;20216;-69
2021/10/23 00:21:14;;;;;;;1.90;1.80;;;7.70;99.90;;;;;;5068042;28;20209;-68
2021/10/23 00:23:41;;;;;;;3.33;2.00;;;7.70;99.90;;;;;;5062737;28;20659;-69
2021/10/23 00:26:08;;;;;;;2.70;1.70;;;7.70;99.90;;;;;;5052691;28;20289;-69
2021/10/23 00:28:35;;;;;;;3.80;1.80;;;7.70;99.90;;;;;;5054600;28;20202;-69
2021/10/23 00:31:04;;;;;;;3.23;1.73;;;7.60;99.90;;;;;;5053743;28;20202;-70
2021/10/23 00:33:31;;;;;;;3.40;1.90;;;7.60;99.90;;;;;;5053955;28;20662;-69
2021/10/23 00:35:58;;;;;;;3.00;1.70;;;7.60;99.90;;;;;;5063859;28;20209;-68
2021/10/23 00:38:25;;;;;;;4.97;1.70;;;7.60;99.90;;;;;;5062779;28;20291;-69
2021/10/23 00:40:52;;;;;;;2.67;1.50;;;7.70;99.90;;;;;;5063633;28;20252;-69
2021/10/23 00:43:19;;;;;;;1.70;1.60;;;7.70;99.90;;;;;;5067132;28;20292;-69
2021/10/23 00:45:46;;;;;;;3.63;1.80;;;7.70;99.90;;;;;;5053474;28;20333;-69
2021/10/23 00:48:14;;;;;;;2.70;1.60;;;7.70;99.90;;;;;;5053759;28;20211;-69
2021/10/23 00:50:42;;;;;;;3.00;2.00;;;7.70;99.90;;;;;;5068295;28;20264;-69
2021/10/23 00:53:08;;;;;;;2.63;1.83;;;7.70;99.90;;;;;;5058761;28;20208;-68
2021/10/23 00:55:35;;;;;;;2.83;1.87;;;7.70;99.90;;;;;;5054424;28;20296;-69
2021/10/23 00:58:02;;;;;;;3.77;1.93;;;7.60;99.90;;;;;;5057204;28;20242;-68
2021/10/23 01:00:29;;;;;;;3.10;1.77;;;7.70;99.90;;;;;;5055616;28;20194;-68
2021/10/23 01:02:58;;;;;;;3.47;1.80;;;7.70;99.90;;;;;;5062763;28;20753;-69
2021/10/23 01:05:26;;;;;;;1.77;1.67;;;7.70;99.90;;;;;;5058484;28;20668;-69
2021/10/23 01:07:54;;;;;;;2.70;1.80;;;7.70;99.90;;;;;;5053007;28;20708;-69
2021/10/23 01:10:21;;;;;;;3.43;1.80;;;7.70;99.90;;;;;;5063877;28;20613;-69
2021/10/23 01:12:47;;;;;;;2.60;1.57;;;7.70;99.90;;;;;;5065360;28;20319;-68
2021/10/23 01:15:20;;;;;;;6.40;2.53;;;7.60;99.90;;;;;;5061097;28;20277;-68
2021/10/23 01:17:47;;;;;;;2.87;2.60;;;7.60;99.90;;;;;;5057272;28;20556;-68
2021/10/23 01:20:16;;;;;;;1.73;1.63;;;7.70;99.90;;;;;;5052763;28;20303;-68
2021/10/23 01:22:43;;;;;;;2.07;1.50;;;7.60;99.90;;;;;;5052191;28;20289;-69
2021/10/23 01:25:11;;;;;;;2.90;1.80;;;7.60;99.90;;;;;;5054991;28;20217;-68
2021/10/23 01:27:38;;;;;;;2.33;1.73;;;7.60;99.90;;;;;;5060377;28;20215;-68
2021/10/23 01:30:06;;;;;;;2.83;1.70;;;7.60;99.90;;;;;;5058035;28;20269;-69
2021/10/23 01:32:33;;;;;;;4.37;2.23;;;7.60;99.90;;;;;;5054437;28;20213;-67
2021/10/23 01:35:00;;;;;;;4.43;2.13;;;7.60;99.90;;;;;;5051832;28;20237;-67
2021/10/23 01:37:39;;;;;;;3.20;1.53;;;7.60;99.90;;;;;;5057926;28;20202;-68
2021/10/23 01:40:09;;;;;;;2.37;1.80;;;7.60;99.90;;;;;;5067125;28;20562;-68
2021/10/23 01:42:36;;;;;;;1.80;1.53;;;7.60;99.90;;;;;;5054278;28;20268;-69
2021/10/23 01:45:04;;;;;;;2.67;1.80;;;7.60;99.90;;;;;;5058349;28;20202;-69
2021/10/23 01:47:31;;;;;;;2.40;2.07;;;7.60;99.90;;;;;;5071681;28;20252;-69
2021/10/23 01:49:58;;;;;;;2.20;1.90;;;7.60;99.90;;;;;;5068476;28;20231;-69
2021/10/23 01:52:25;;;;;;;2.50;1.60;;;7.60;99.90;;;;;;5057965;28;20289;-68
2021/10/23 01:54:53;;;;;;;3.57;1.93;;;7.60;99.90;;;;;;5059241;28;20630;-69
2021/10/23 01:57:20;;;;;;;3.27;1.70;;;7.60;99.90;;;;;;5056495;28;20737;-69
2021/10/23 01:59:47;;;;;;;4.00;2.00;;;7.60;99.90;;;;;;5059453;28;20247;-70
2021/10/23 02:02:14;;;;;;;2.43;1.83;;;7.60;99.90;;;;;;5066997;28;20208;-69
2021/10/23 02:04:40;;;;;;;2.80;1.90;;;7.60;99.90;;;;;;5067672;28;20682;-70
2021/10/23 02:07:08;;;;;;;2.63;1.90;;;7.60;99.90;;;;;;5059870;28;20229;-69
2021/10/23 02:09:35;;;;;;;5.03;1.90;;;7.60;99.90;;;;;;5054250;28;20543;-69
2021/10/23 02:12:03;;;;;;;4.27;1.80;;;7.60;99.90;;;;;;5052103;28;20216;-69
2021/10/23 02:14:30;;;;;;;4.27;2.00;;;7.60;99.90;;;;;;5064523;28;20316;-69
2021/10/23 02:16:57;;;;;;;2.20;1.60;;;7.60;99.90;;;;;;5052584;28;20198;-69
2021/10/23 02:19:23;;;;;;;3.67;1.70;;;7.50;99.90;;;;;;5051822;28;20219;-69
2021/10/23 02:21:50;;;;;;;1.70;1.40;;;7.50;99.90;;;;;;5052255;28;20210;-69
2021/10/23 02:24:17;;;;;;;3.17;1.53;;;7.50;99.90;;;;;;5053405;28;20301;-69
2021/10/23 02:26:44;;;;;;;3.73;1.57;;;7.50;99.90;;;;;;5052277;28;20232;-69
2021/10/23 02:29:13;;;;;;;2.27;1.50;;;7.50;99.90;;;;;;5060851;28;20655;-68
2021/10/23 02:31:40;;;;;;;2.40;1.57;;;7.50;99.90;;;;;;5066157;28;20201;-69
2021/10/23 02:34:07;;;;;;;3.20;1.53;;;7.50;99.90;;;;;;5065646;28;20279;-69
2021/10/23 02:36:34;;;;;;;2.33;1.33;;;7.50;99.90;;;;;;5057613;28;20206;-69
2021/10/23 02:39:01;;;;;;;2.33;1.20;;;7.50;99.90;;;;;;5064639;28;20214;-69
2021/10/23 02:41:28;;;;;;;3.07;1.50;;;7.50;99.90;;;;;;5056044;28;20210;-68
2021/10/23 02:43:56;;;;;;;3.40;1.50;;;7.50;99.90;;;;;;5055751;28;20209;-69
2021/10/23 02:46:24;;;;;;;3.37;1.33;;;7.40;99.90;;;;;;5068892;28;20232;-69
2021/10/23 02:48:51;;;;;;;3.63;1.57;;;7.30;99.90;;;;;;5065560;28;20222;-69
2021/10/23 02:51:18;;;;;;;1.57;1.17;;;7.30;99.90;;;;;;5055615;28;20264;-69
2021/10/23 02:53:45;;;;;;;1.87;1.40;;;7.20;99.90;;;;;;5062628;28;20638;-69
2021/10/23 02:56:12;;;;;;;3.13;1.50;;;7.20;99.90;;;;;;5056046;28;20230;-69
2021/10/23 02:58:39;;;;;;;3.93;1.67;;;7.20;99.90;;;;;;5065190;28;20236;-69
2021/10/23 03:01:06;;;;;;;1.97;1.20;;;7.20;99.90;;;;;;5072208;28;20217;-69
2021/10/23 03:03:35;;;;;;;3.10;1.00;;;7.10;99.90;;;;;;5061915;28;20256;-69
2021/10/23 03:06:02;;;;;;;3.83;1.60;;;7.10;99.90;;;;;;5072893;28;20267;-68
2021/10/23 03:08:29;;;;;;;1.53;1.30;;;7.10;99.90;;;;;;5065283;28;20232;-68
2021/10/23 03:10:56;;;;;;;4.07;1.17;;;7.10;99.90;;;;;;5066665;28;20216;-68
2021/10/23 03:13:23;;;;;;;1.83;1.20;;;7.10;99.90;;;;;;5060929;28;20212;-68
2021/10/23 03:15:53;;;;;;;3.87;1.60;;;7.10;99.90;;;;;;5061846;28;20300;-68
2021/10/23 03:18:19;;;;;;;1.93;1.30;;;7.10;99.90;;;;;;5058345;28;20224;-68
2021/10/23 03:20:48;;;;;;;3.43;1.33;;;7.10;99.90;;;;;;5056339;28;20561;-68
2021/10/23 03:23:16;;;;;;;4.63;1.40;;;7.00;99.90;;;;;;5055945;28;20213;-69
2021/10/23 03:25:43;;;;;;;4.80;1.30;;;7.00;99.90;;;;;;5065004;28;20221;-68
2021/10/23 03:28:10;;;;;;;3.33;1.20;;;7.00;99.90;;;;;;5061932;28;20308;-70
2021/10/23 03:30:37;;;;;;;2.13;1.40;;;7.00;99.90;;;;;;5066341;28;20202;-69
2021/10/23 03:33:04;;;;;;;2.20;1.20;;;7.00;99.90;;;;;;5059225;28;20205;-69
2021/10/23 03:35:31;;;;;;;3.57;1.20;;;7.00;99.90;;;;;;5075083;28;20212;-68
2021/10/23 03:37:59;;;;;;;6.50;1.77;;;6.90;99.90;;;;;;5075018;28;20709;-68
2021/10/23 03:40:26;;;;;;;3.03;1.50;;;6.90;99.90;;;;;;5069212;28;20237;-67
2021/10/23 03:42:53;;;;;;;2.37;1.50;;;6.90;99.90;;;;;;5056017;28;20214;-68
2021/10/23 03:45:20;;;;;;;2.57;1.47;;;6.90;99.90;;;;;;5055788;28;20202;-69
2021/10/23 03:47:47;;;;;;;2.97;1.40;;;6.90;99.90;;;;;;5054144;28;20312;-69
2021/10/23 03:50:14;;;;;;;2.13;1.57;;;6.90;99.90;;;;;;5055930;28;20197;-69
2021/10/23 03:52:41;;;;;;;5.50;1.93;;;7.00;99.90;;;;;;5054698;28;20205;-69
2021/10/23 03:55:10;;;;;;;2.63;1.23;;;6.90;99.90;;;;;;5054880;28;20206;-69
2021/10/23 03:57:37;;;;;;;5.47;1.80;;;7.00;99.90;;;;;;5055751;28;20233;-68
2021/10/23 04:00:04;;;;;;;4.47;1.30;;;7.00;99.90;;;;;;5060409;28;20202;-70
2021/10/23 04:02:31;;;;;;;5.07;1.50;;;7.00;99.90;;;;;;5071300;28;20198;-69
2021/10/23 04:04:58;;;;;;;3.90;1.80;;;7.00;99.90;;;;;;5063094;28;20212;-68
2021/10/23 04:07:25;;;;;;;2.13;1.40;;;7.00;99.90;;;;;;5073156;28;20251;-68
2021/10/23 04:09:52;;;;;;;3.03;1.63;;;7.10;99.90;;;;;;5054620;28;20209;-69
2021/10/23 04:12:20;;;;;;;5.97;1.53;;;7.10;99.90;;;;;;5054067;28;20220;-69
2021/10/23 04:14:47;;;;;;;2.33;1.50;;;7.10;99.90;;;;;;5060738;28;20746;-69
2021/10/23 04:17:14;;;;;;;3.20;1.40;;;7.10;99.90;;;;;;5055035;28;20300;-69
2021/10/23 04:19:41;;;;;;;2.03;1.40;;;7.10;99.90;;;;;;5067692;28;20205;-68
2021/10/23 04:22:09;;;;;;;5.40;1.40;;;7.20;99.90;;;;;;5064334;28;20606;-68
2021/10/23 04:24:36;;;;;;;2.30;1.80;;;7.10;99.90;;;;;;5054326;28;20313;-69
2021/10/23 04:27:03;;;;;;;7.27;1.60;;;7.20;99.90;;;;;;5061924;28;20219;-68
2021/10/23 04:29:32;;;;;;;5.30;1.80;;;7.20;99.90;;;;;;5058004;28;20677;-68
2021/10/23 04:31:59;;;;;;;3.80;1.80;;;7.20;99.90;;;;;;5062902;28;20213;-67
2021/10/23 04:34:26;;;;;;;4.73;1.70;;;7.20;99.90;;;;;;5059628;28;20645;-69
2021/10/23 04:36:53;;;;;;;2.97;1.50;;;7.20;99.90;;;;;;5072386;28;20209;-69
2021/10/23 04:39:20;;;;;;;3.37;1.43;;;7.20;99.90;;;;;;5059678;28;20241;-69
2021/10/23 04:41:47;;;;;;;8.00;1.67;;;7.10;99.90;;;;;;5057284;28;20216;-68
2021/10/23 04:44:14;;;;;;;3.43;1.53;;;7.20;99.90;;;;;;5067293;28;20759;-70
2021/10/23 04:46:42;;;;;;;5.87;2.17;;;7.10;99.90;;;;;;5057507;28;20214;-68
2021/10/23 04:49:09;;;;;;;3.53;1.70;;;7.20;99.90;;;;;;5057459;28;20236;-68
2021/10/23 04:51:36;;;;;;;6.80;2.13;;;7.10;99.90;;;;;;5058651;28;20216;-69
2021/10/23 04:54:03;;;;;;;4.50;1.70;;;7.10;99.90;;;;;;5057336;28;20520;-69
2021/10/23 04:56:29;;;;;;;4.73;1.90;;;7.10;99.90;;;;;;5053134;28;20225;-68
2021/10/23 04:58:56;;;;;;;3.43;1.77;;;7.10;99.90;;;;;;5051922;28;20244;-68
2021/10/23 05:01:23;;;;;;;3.10;1.70;;;7.20;99.90;;;;;;5055349;28;20210;-67
2021/10/23 05:03:52;;;;;;;5.80;1.90;;;7.20;99.90;;;;;;5059578;28;20297;-75
2021/10/23 05:06:19;;;;;;;6.37;1.80;;;7.20;99.90;;;;;;5072372;28;20204;-74
2021/10/23 05:08:45;;;;;;;2.93;1.80;;;7.20;99.90;;;;;;5072216;28;20331;-74
2021/10/23 05:11:13;;;;;;;3.73;1.77;;;7.20;99.90;;;;;;5075000;28;20284;-74
2021/10/23 05:13:40;;;;;;;5.23;2.30;;;7.20;99.90;;;;;;5072544;28;20205;-74
2021/10/23 05:16:06;;;;;;;5.17;1.83;;;7.20;99.90;;;;;;5074233;28;20235;-71
2021/10/23 05:18:33;;;;;;;2.77;1.53;;;7.10;99.90;;;;;;5075109;28;20724;-69
2021/10/23 05:21:02;;;;;;;2.57;1.87;;;7.20;99.90;;;;;;5073520;28;20240;-69
2021/10/23 05:23:29;;;;;;;3.80;1.57;;;7.20;99.90;;;;;;5070420;28;20209;-70
2021/10/23 05:25:56;;;;;;;5.67;2.07;;;7.10;99.90;;;;;;5070305;28;20213;-69
2021/10/23 05:28:22;;;;;;;3.30;1.70;;;7.10;99.90;;;;;;5066434;28;20696;-70
2021/10/23 05:30:49;;;;;;;3.70;2.07;;;7.10;99.90;;;;;;5061081;28;20642;-68
2021/10/23 05:33:16;;;;;;;4.27;1.57;;;7.10;99.90;;;;;;5064622;28;20276;-74
2021/10/23 05:35:43;;;;;;;3.77;1.83;;;7.10;99.90;;;;;;5067336;28;20256;-72
2021/10/23 05:38:11;;;;;;;4.17;2.00;;;7.10;99.90;;;;;;5061581;28;20201;-70
2021/10/23 05:40:38;;;;;;;8.33;2.20;;;7.10;99.90;;;;;;5064792;28;20297;-72
2021/10/23 05:43:05;;;;;;;4.73;1.93;;;7.10;99.90;;;;;;5057868;28;20207;-70
2021/10/23 05:45:32;;;;;;;2.83;1.97;;;7.10;99.90;;;;;;5068163;28;20258;-69
2021/10/23 05:47:59;;;;;;;5.67;1.87;;;7.10;99.90;;;;;;5055780;28;20229;-70
2021/10/23 05:50:26;;;;;;;4.13;1.87;;;7.10;99.90;;;;;;5073239;28;20729;-71
2021/10/23 05:52:53;;;;;;;7.37;2.43;;;7.10;99.90;;;;;;5068889;28;20670;-72
2021/10/23 05:55:21;;;;;;;4.13;1.97;;;7.10;99.90;;;;;;5069756;28;20666;-70
2021/10/23 05:57:48;;;;;;;5.23;2.50;;;7.10;99.90;;;;;;5059360;28;20241;-69
2021/10/23 06:00:15;;;;;;;6.30;2.20;;;7.10;99.90;;;;;;5071845;28;20201;-68
2021/10/23 06:02:44;;;;;;;3.63;2.10;;;7.10;99.90;;;;;;5067259;28;20208;-73
2021/10/23 06:05:11;;;;;;;6.33;2.37;;;7.10;99.90;;;;;;5061015;28;20216;-72
2021/10/23 06:07:39;;;;;;;6.07;2.20;;;7.20;99.90;;;;;;5054058;28;20202;-70
2021/10/23 06:10:08;;;;;;;4.50;2.23;;;7.20;99.90;;;;;;5061669;28;20205;-71
2021/10/23 06:12:38;;;;;;;6.03;2.57;;;7.20;99.90;;;;;;5057629;28;20664;-69
2021/10/23 06:15:06;;;;;;;5.70;2.23;;;7.20;99.90;;;;;;5070682;28;20738;-70
2021/10/23 06:17:33;;;;;;;5.70;2.63;;;7.20;99.90;;;;;;5073067;28;20235;-71
2021/10/23 06:20:01;;;;;;;5.60;2.57;;;7.20;99.90;;;;;;5057376;28;20205;-73
2021/10/23 06:22:28;;;;;;;4.53;2.37;;;7.20;99.90;;;;;;5056424;28;20229;-71
2021/10/23 06:24:55;;;;;;;7.20;2.27;;;7.20;99.90;;;;;;5056072;28;20587;-71
2021/10/23 06:27:22;;;;;;;3.87;2.50;;;7.20;99.90;;;;;;5059297;28;20214;-70
2021/10/23 06:29:50;;;;;;;5.43;2.50;;;7.20;99.90;;;;;;5055558;28;20257;-70
2021/10/23 06:32:17;;;;;;;5.00;2.57;;;7.20;99.90;;;;;;5054206;28;20206;-68
2021/10/23 06:34:44;;;;;;;6.07;2.50;;;7.20;99.90;;;;;;5053442;28;20702;-72
2021/10/23 06:37:12;;;;;;;3.83;1.93;;;7.20;99.90;;;;;;5057838;28;20205;-69
2021/10/23 06:39:39;;;;;;;5.87;2.33;;;7.30;99.90;;;;;;5067740;28;20549;-71
2021/10/23 06:42:06;;;;;;;6.97;2.37;;;7.30;99.90;;;;;;5051908;28;20284;-70
2021/10/23 06:44:35;;;;;;;9.37;2.70;;;7.30;99.90;;;;;;5051301;28;20658;-69
2021/10/23 06:47:03;;;;;;;9.63;2.63;;;7.30;99.90;;;;;;5058738;28;20233;-69
2021/10/23 06:49:30;;;;;;;7.47;2.50;;;7.40;99.90;;;;;;5060086;28;20226;-69
2021/10/23 06:51:57;;;;;;;4.63;2.83;;;7.40;99.90;;;;;;5053342;28;20519;-68
2021/10/23 06:54:24;;;;;;;6.00;2.73;;;7.50;99.90;;;;;;5064620;28;20211;-70
2021/10/23 06:56:51;;;;;;;7.50;2.60;;;7.70;99.90;;;;;;5055858;28;20295;-69
2021/10/23 06:59:17;;;;;;;5.37;2.17;;;7.70;99.90;;;;;;5060852;28;20238;-69
2021/10/23 07:01:44;;;;;;;5.47;2.30;;;7.80;99.90;;;;;;5065308;28;20205;-70
2021/10/23 07:04:12;;;;;;;4.23;2.23;;;7.90;99.90;;;;;;5063801;28;20216;-70
2021/10/23 07:06:39;;;;;;;5.67;2.53;;;7.90;99.90;;;;;;5071897;28;20569;-71
2021/10/23 07:09:06;;;;;;;8.40;2.73;;;7.90;99.90;;;;;;5057881;28;20266;-69
2021/10/23 07:11:33;;;;;;;8.13;2.23;;;7.90;99.90;;;;;;5060710;28;20198;-70
2021/10/23 07:14:00;;;;;;;8.23;2.07;;;7.80;99.90;;;;;;5052842;28;20233;-70
2021/10/23 07:16:27;;;;;;;4.97;2.30;;;7.90;99.90;;;;;;5053362;28;20232;-71
2021/10/23 07:18:54;;;;;;;5.93;2.47;;;7.90;99.90;;;;;;5064189;28;20288;-71
2021/10/23 07:21:23;;;;;;;7.97;2.33;;;7.90;99.90;;;;;;5056641;28;20232;-70
2021/10/23 07:23:53;;;;;;;5.43;2.23;;;7.90;99.90;;;;;;5060475;28;20229;-72
2021/10/23 07:26:20;;;;;;;5.50;2.60;;;7.80;99.90;;;;;;5071763;28;20304;-72
2021/10/23 07:28:47;;;;;;;7.40;2.57;;;7.90;99.90;;;;;;5069792;28;20320;-73
2021/10/23 07:31:14;;;;;;;6.70;2.27;;;7.80;99.90;;;;;;5057955;28;20202;-73
2021/10/23 07:33:41;;;;;;;5.07;2.07;;;7.80;99.90;;;;;;5065071;28;20245;-74
2021/10/23 07:36:08;;;;;;;4.97;2.47;;;7.80;99.90;;;;;;5058359;28;20228;-73
2021/10/23 07:38:36;;;;;;;3.93;2.07;;;7.80;99.90;;;;;;5064493;28;20284;-72
2021/10/23 07:41:04;;;;;;;8.63;2.70;;;7.80;99.90;;;;;;5069177;28;20452;-72
2021/10/23 07:43:31;;;;;;;7.97;2.67;;;7.80;99.90;;;;;;5073224;28;20623;-71
2021/10/23 07:45:57;;;;;;;3.50;2.10;;;7.80;99.90;;;;;;5072417;28;20201;-72
2021/10/23 07:48:24;;;;;;;4.50;2.30;;;7.80;99.90;;;;;;5065112;28;20220;-72
2021/10/23 07:50:51;;;;;;;8.17;2.43;;;7.80;99.90;;;;;;5062024;28;20293;-72
2021/10/23 07:53:20;;;;;;;9.67;2.03;;;7.80;99.90;;;;;;5072165;28;20293;-74
2021/10/23 07:55:48;;;;;;;6.37;2.33;;;7.80;99.90;;;;;;5061013;28;20213;-71
2021/10/23 07:58:15;;;;;;;6.33;2.20;;;7.70;99.90;;;;;;5074208;28;20324;-72
2021/10/23 08:00:42;;;;;;;9.20;2.27;;;7.80;99.90;;;;;;5075634;28;20634;-71
2021/10/23 08:03:10;;;;;;;5.67;2.33;;;7.80;99.90;;;;;;5072820;28;20282;-69
2021/10/23 08:05:38;;;;;;;8.43;2.33;;;7.80;99.90;;;;;;5073332;28;20219;-73
2021/10/23 08:08:06;;;;;;;5.77;1.60;;;7.80;99.90;;;;;;5055040;28;20214;-69
2021/10/23 08:10:34;;;;;;;6.47;2.13;;;7.90;99.90;;;;;;5061622;28;20235;-73
2021/10/23 08:13:04;;;;;;;8.43;2.40;;;7.90;99.90;;;;;;5066846;28;20198;-72
2021/10/23 08:15:33;;;;;;;6.77;2.23;;;8.00;99.90;;;;;;5068692;28;20431;-70
2021/10/23 08:18:02;;;;;;;6.63;2.23;;;8.00;99.90;;;;;;5058897;28;20214;-70
2021/10/23 08:20:29;;;;;;;8.73;1.97;;;8.10;99.90;;;;;;5066365;28;20194;-74
2021/10/23 08:22:56;;;;;;;10.10;3.93;;;8.10;99.90;;;;;;5059410;28;20210;-71
2021/10/23 08:25:23;;;;;;;5.17;2.23;;;8.10;99.90;;;;;;5061433;28;20210;-73
2021/10/23 08:27:50;;;;;;;5.63;2.50;;;8.10;99.90;;;;;;5062125;28;20219;-72
2021/10/23 08:30:20;;;;;;;4.77;2.33;;;8.10;99.90;;;;;;5053835;28;20570;-71
2021/10/23 08:32:49;;;;;;;8.73;2.93;;;8.10;99.90;;;;;;5059086;28;20678;-72
2021/10/23 08:35:16;;;;;;;5.43;2.03;;;8.10;99.90;;;;;;5057303;28;20288;-72
2021/10/23 08:37:46;;;;;;;5.93;2.20;;;8.10;99.90;;;;;;5074059;28;20286;-73
2021/10/23 08:40:14;;;;;;;7.10;2.63;;;8.10;99.90;;;;;;5059343;28;20630;-71
2021/10/23 08:42:42;;;;;;;10.03;2.90;;;8.10;99.90;;;;;;5063314;28;20220;-71
2021/10/23 08:45:11;;;;;;;6.67;2.70;;;8.20;99.90;;;;;;5057804;28;20207;-74
2021/10/23 08:47:42;;;;;;;4.87;2.10;;;8.20;99.90;;;;;;5057483;28;20205;-73
2021/10/23 08:50:11;;;;;;;7.07;2.10;;;8.20;99.90;;;;;;5066458;28;20300;-71
2021/10/23 08:52:39;;;;;;;7.17;2.53;;;8.20;99.90;;;;;;5069160;28;20211;-72
2021/10/23 08:55:06;;;;;;;9.73;2.67;;;8.20;99.90;;;;;;5068362;28;20201;-72
2021/10/23 08:57:34;;;;;;;8.07;2.73;;;8.20;99.90;;;;;;5069297;28;20333;-75
2021/10/23 09:00:01;;;;;;;7.43;2.00;;;8.20;99.90;;;;;;5068910;28;20240;-71
2021/10/23 09:02:28;;;;;;;5.20;2.03;;;8.30;99.90;;;;;;5062983;28;20202;-74
2021/10/23 09:04:58;;;;;;;9.13;2.10;;;8.20;99.90;;;;;;5070191;28;20201;-76
2021/10/23 09:07:26;;;;;;;7.53;2.57;;;8.20;99.90;;;;;;5055122;28;20713;-72
2021/10/23 09:09:54;;;;;;;8.73;2.37;;;8.30;99.90;;;;;;5065775;28;20222;-72
2021/10/23 09:12:24;;;;;;;6.37;2.33;;;8.30;99.90;;;;;;5064264;28;20205;-72
2021/10/23 09:14:58;;;;;;;4.47;2.20;;;8.40;99.90;;;;;;5072559;28;20213;-74
2021/10/23 09:17:25;;;;;;;5.77;2.40;;;8.40;99.90;;;;;;5056618;28;20279;-71
2021/10/23 09:19:54;;;;;;;7.83;2.57;;;8.50;99.90;;;;;;5065590;28;20198;-72
2021/10/23 09:22:32;;;;;;;4.63;2.20;;;8.50;99.90;;;;;;5061570;28;20714;-72
2021/10/23 09:25:15;;;;;;;5.83;2.00;;;8.50;99.90;;;;;;5072757;28;20211;-72
2021/10/23 09:27:54;;;;;;;7.40;2.20;;;8.50;99.90;;;;;;5063994;28;20208;-71
2021/10/23 09:30:24;;;;;;;10.13;2.70;;;8.50;99.90;;;;;;5056826;28;20235;-72
2021/10/23 09:32:53;;;;;;;11.67;2.67;;;8.50;99.90;;;;;;5060925;28;20548;-72
2021/10/23 09:35:21;;;;;;;9.33;3.07;;;8.50;99.90;;;;;;5058935;28;20264;-72
2021/10/23 09:37:50;;;;;;;4.03;2.40;;;8.50;99.90;;;;;;5066474;28;20296;-70
2021/10/23 09:40:19;;;;;;;11.90;2.17;;;8.50;99.90;;;;;;5065254;28;20585;-71
2021/10/23 09:42:47;;;;;;;8.53;2.80;;;8.40;99.90;;;;;;5057323;28;20244;-72
2021/10/23 09:45:14;;;;;;;5.97;2.63;;;8.40;99.90;;;;;;5054596;28;20233;-72
2021/10/23 09:47:42;;;;;;;6.37;2.73;;;8.50;99.90;;;;;;5056108;28;20213;-70
2021/10/23 09:50:13;;;;;;;8.20;2.00;;;8.50;99.90;;;;;;5061948;28;20698;-71
2021/10/23 09:53:07;;;;;;;5.80;2.40;;;8.50;99.90;;;;;;5060246;28;20301;-72
2021/10/23 09:55:53;;;;;;;6.70;2.00;;;8.60;99.90;;;;;;5035161;28;20210;-70
2021/10/23 09:58:21;;;;;;;4.77;2.10;;;8.70;99.90;;;;;;5056792;28;20237;-71
2021/10/23 10:00:49;;;;;;;6.03;2.47;;;8.70;99.90;;;;;;5057846;28;20206;-69
2021/10/23 10:03:20;;;;;;;4.47;2.17;;;8.90;99.90;;;;;;5057194;28;20573;-71
2021/10/23 10:05:53;;;;;;;7.03;2.30;;;8.90;99.90;;;;;;5055489;28;20662;-72
2021/10/23 10:08:22;;;;;;;12.17;2.53;;;9.00;99.90;;;;;;5055662;28;20216;-71
2021/10/23 10:10:51;;;;;;;6.53;2.80;;;9.10;99.90;;;;;;5058112;28;20422;-72
2021/10/23 10:13:22;;;;;;;5.83;2.33;;;9.20;99.90;;;;;;5057109;28;20491;-71
2021/10/23 10:15:50;;;;;;;5.37;1.87;;;9.30;99.90;;;;;;5053602;28;20209;-71
2021/10/23 10:18:19;;;;;;;7.63;2.20;;;9.40;99.90;;;;;;5056454;28;21928;-71
2021/10/23 10:20:47;;;;;;;6.57;2.73;;;9.50;99.90;;;;;;5052519;28;20206;-70
2021/10/23 10:23:17;;;;;;;8.90;2.30;;;9.50;99.90;;;;;;5068401;28;20197;-71
2021/10/23 10:25:53;;;;;;;15.70;4.57;;;9.50;99.90;;;;;;5056768;28;20284;-71
2021/10/23 10:28:20;;;;;;;6.13;3.27;;;9.40;99.90;;;;;;5065115;28;20201;-71
2021/10/23 10:30:53;;;;;;;7.43;2.27;;;9.40;99.90;;;;;;5064170;28;20275;-71
2021/10/23 10:33:28;;;;;;;5.67;2.23;;;9.30;99.90;;;;;;5065421;28;20636;-70
2021/10/23 10:36:17;;;;;;;6.93;2.17;;;9.30;99.90;;;;;;5070530;28;20208;-70
2021/10/23 10:38:57;;;;;;;9.13;2.17;;;9.40;99.90;;;;;;5071281;28;20208;-70
2021/10/23 10:44:20;;;;;;;6.17;2.53;;;9.40;99.90;;;;;;5054090;28;20213;-70
2021/10/23 10:47:17;;;;;;;8.10;2.30;;;9.50;99.90;;;;;;5053941;28;20206;-70
2021/10/23 10:49:54;;;;;;;6.70;2.67;;;9.80;99.90;;;;;;5064001;28;20221;-70
2021/10/23 10:53:03;;;;;;;7.27;2.70;;;10.50;99.90;;;;;;5057358;28;20212;-70
2021/10/23 10:55:39;;;;;;;9.63;2.43;;;11.20;99.90;;;;;;5062296;28;20237;-70
2021/10/23 10:58:09;;;;;;;9.23;2.43;;;11.80;99.90;;;;;;5057487;28;20670;-70
2021/10/23 11:01:14;;;;;;;7.90;2.57;;;11.70;99.90;;;;;;5070144;28;20285;-71
2021/10/23 11:03:49;;;;;;;6.63;2.17;;;11.50;99.90;;;;;;5070119;28;20579;-70
2021/10/23 11:06:45;;;;;;;5.73;2.10;;;11.20;99.90;;;;;;5069784;28;20677;-70
2021/10/23 11:09:45;;;;;;;6.70;2.50;;;11.00;99.90;;;;;;5054833;28;20202;-71
2021/10/23 11:12:14;;;;;;;7.43;2.37;;;10.80;99.90;;;;;;5060592;28;20209;-69
2021/10/23 11:14:42;;;;;;;8.50;3.37;;;10.60;99.90;;;;;;5073802;28;20197;-70
2021/10/23 11:17:20;;;;;;;5.27;2.17;;;10.50;99.90;;;;;;5060237;28;20216;-70
2021/10/23 11:20:13;;;;;;;8.17;3.00;;;10.40;99.90;;;;;;5060427;28;20233;-70
2021/10/23 11:22:47;;;;;;;10.40;3.10;;;10.20;99.90;;;;;;5052907;28;20202;-71
2021/10/23 11:25:16;;;;;;;7.73;2.87;;;10.20;99.90;;;;;;5053096;28;20216;-69
2021/10/23 11:27:44;;;;;;;7.83;3.13;;;10.10;99.90;;;;;;5054713;28;20293;-70
2021/10/23 11:30:25;;;;;;;6.83;2.70;;;10.00;99.90;;;;;;5068875;28;20243;-69
2021/10/23 11:32:57;;;;;;;6.20;2.97;;;10.00;99.90;;;;;;5068780;28;20304;-68
2021/10/23 11:35:38;;;;;;;7.50;2.80;;;10.00;99.90;;;;;;5073993;28;20635;-69
2021/10/23 11:38:10;;;;;;;7.80;3.23;;;10.00;99.90;;;;;;5073666;28;20209;-69
2021/10/23 11:40:39;;;;;;;8.13;3.20;;;9.90;99.90;;;;;;5073851;28;20305;-69
2021/10/23 11:43:07;;;;;;;9.87;2.93;;;10.00;99.90;;;;;;5073235;28;20639;-70
2021/10/23 11:45:37;;;;;;;6.13;2.73;;;10.00;99.90;;;;;;5060797;28;20231;-70
2021/10/23 11:48:06;;;;;;;7.40;2.87;;;10.10;99.90;;;;;;5069441;28;20213;-69
2021/10/23 11:50:35;;;;;;;7.60;3.13;;;10.20;99.90;;;;;;5071920;28;20702;-71
2021/10/23 11:53:04;;;;;;;6.60;2.57;;;10.20;99.90;;;;;;5073439;28;20216;-69
2021/10/23 11:55:36;;;;;;;8.60;2.93;;;10.10;99.90;;;;;;5073678;28;20660;-69
2021/10/23 11:58:06;;;;;;;9.47;3.20;;;9.90;99.90;;;;;;5060639;28;20237;-69
2021/10/23 12:00:39;;;;;;;10.40;3.30;;;9.80;99.90;;;;;;5057054;28;20236;-69
2021/10/23 12:03:09;;;;;;;11.03;3.17;;;9.70;99.90;;;;;;5061316;28;20224;-69
2021/10/23 12:05:42;;;;;;;7.13;3.20;;;9.70;99.90;;;;;;5068171;28;20201;-69
2021/10/23 12:08:28;;;;;;;7.37;2.87;;;9.60;99.90;;;;;;5062715;28;20315;-70
2021/10/23 12:11:16;;;;;;;8.90;3.00;;;9.70;99.90;;;;;;5072138;28;20209;-70
2021/10/23 12:13:47;;;;;;;7.50;2.87;;;9.60;99.90;;;;;;5066072;28;20749;-69
2021/10/23 12:16:16;;;;;;;7.73;2.70;;;9.60;99.90;;;;;;5073511;28;20201;-69
2021/10/23 12:18:44;;;;;;;4.43;2.50;;;9.50;99.90;;;;;;5067561;28;20213;-68
2021/10/23 12:21:13;;;;;;;7.23;2.70;;;9.40;99.90;;;;;;5065845;28;20206;-69
2021/10/23 12:23:45;;;;;;;6.30;2.77;;;9.40;99.90;;;;;;5058583;28;20761;-69
2021/10/23 12:26:12;;;;;;;9.77;3.10;;;9.30;99.90;;;;;;5056102;28;20206;-68
2021/10/23 12:29:02;;;;;;;6.73;2.83;;;9.30;99.90;;;;;;5061296;28;20213;-69
2021/10/23 12:32:01;;;;;;;8.43;3.20;;;9.20;99.90;;;;;;5060728;28;20233;-68
2021/10/23 12:34:49;;;;;;;11.40;3.50;;;9.20;99.90;;;;;;5072025;28;20212;-68
2021/10/23 12:37:30;;;;;;;11.10;3.83;;;9.10;99.90;;;;;;5072528;28;20228;-69
2021/10/23 12:40:04;;;;;;;7.27;2.83;;;9.20;99.90;;;;;;5067709;28;20201;-68
2021/10/23 12:42:31;;;;;;;10.17;3.40;;;9.10;99.90;;;;;;5065743;28;20201;-70
2021/10/23 12:44:57;;;;;;;10.07;3.43;;;9.10;99.90;;;;;;5067594;28;20237;-70
2021/10/23 12:47:24;;;;;;;9.17;2.93;;;9.10;99.90;;;;;;5058980;28;20716;-69
2021/10/23 12:49:52;;;;;;;9.10;2.97;;;9.10;99.90;;;;;;5072484;28;20233;-68
2021/10/23 12:52:20;;;;;;;5.77;2.90;;;9.10;99.90;;;;;;5059536;28;20253;-72
2021/10/23 12:54:47;;;;;;;7.10;2.80;;;9.10;99.90;;;;;;5055110;28;20241;-72
2021/10/23 12:57:14;;;;;;;8.77;3.20;;;9.20;99.90;;;;;;5072507;28;20313;-71
2021/10/23 12:59:41;;;;;;;6.33;3.10;;;9.20;99.90;;;;;;5069198;28;20237;-71
2021/10/23 13:02:08;;;;;;;5.30;2.67;;;9.20;99.90;;;;;;5066678;28;20212;-68
2021/10/23 13:04:35;;;;;;;9.53;3.30;;;9.20;99.90;;;;;;5064185;28;20633;-71
2021/10/23 13:07:02;;;;;;;9.10;2.97;;;9.20;99.90;;;;;;5067585;28;20447;-69
2021/10/23 13:09:30;;;;;;;11.73;3.60;;;9.20;99.90;;;;;;5054200;28;20216;-69